createdAt,value
2019-03-22T00:02:31.875Z,19.45
2019-03-22T00:05:12.751Z,20.27
2019-03-22T00:07:56.395Z,19.67
2019-03-22T00:10:37.654Z,20.32
2019-03-22T00:13:18.128Z,18.90
2019-03-22T00:15:59.018Z,18.95
2019-03-22T00:18:39.712Z,19.73
2019-03-22T00:21:20.213Z,20.23
2019-03-22T00:24:00.903Z,20.12
2019-03-22T00:26:41.787Z,19.77
2019-03-22T00:29:24.698Z,20.12
2019-03-22T00:32:05.578Z,19.95
2019-03-22T00:34:46.178Z,19.48
2019-03-22T00:37:26.717Z,18.95
2019-03-22T00:40:08.064Z,19.25
2019-03-22T00:42:48.628Z,21.10
2019-03-22T00:45:29.265Z,20.15
2019-03-22T00:48:12.227Z,19.80
2019-03-22T00:50:55.947Z,19.50
2019-03-22T00:53:36.568Z,20.45
2019-03-22T00:56:17.219Z,19.95
2019-03-22T00:58:58.118Z,20.68
2019-03-22T01:01:38.926Z,20.00
2019-03-22T01:04:19.573Z,19.50
2019-03-22T01:07:00.088Z,21.70
2019-03-22T01:09:40.879Z,19.62
2019-03-22T01:12:21.402Z,20.88
2019-03-22T01:15:02.341Z,20.88
2019-03-22T01:17:48.450Z,20.70
2019-03-22T01:20:29.318Z,20.48
2019-03-22T01:23:09.826Z,21.17
2019-03-22T01:25:50.745Z,20.80
2019-03-22T01:28:32.874Z,21.35
2019-03-22T01:31:15.809Z,19.85
2019-03-22T01:33:56.728Z,20.00
2019-03-22T01:36:37.840Z,20.77
2019-03-22T01:39:18.589Z,20.72
2019-03-22T01:41:59.446Z,20.85
2019-03-22T01:44:40.278Z,20.50
2019-03-22T01:47:24.591Z,19.60
2019-03-22T01:50:08.571Z,19.30
2019-03-22T01:52:49.333Z,19.95
2019-03-22T01:55:30.194Z,20.25
2019-03-22T01:58:11.026Z,19.30
2019-03-22T02:00:53.278Z,20.40
2019-03-22T02:03:33.957Z,19.82
2019-03-22T02:06:15.664Z,21.30
2019-03-22T02:08:56.698Z,19.02
2019-03-22T02:11:37.611Z,20.50
2019-03-22T02:14:20.732Z,19.35
2019-03-22T02:17:01.312Z,20.68
2019-03-22T02:19:41.806Z,21.05
2019-03-22T02:22:22.774Z,20.90
2019-03-22T02:25:03.504Z,21.80
2019-03-22T02:27:44.512Z,22.13
2019-03-22T02:30:25.145Z,20.72
2019-03-22T02:33:06.036Z,21.97
2019-03-22T02:35:48.341Z,19.98
2019-03-22T02:38:28.917Z,19.67
2019-03-22T02:41:09.693Z,20.68
2019-03-22T02:43:50.350Z,21.57
2019-03-22T02:46:31.036Z,20.70
2019-03-22T02:49:14.144Z,20.45
2019-03-22T02:51:55.064Z,21.97
2019-03-22T02:54:38.166Z,21.15
2019-03-22T02:57:18.819Z,22.20
2019-03-22T03:00:00.533Z,19.98
2019-03-22T03:02:44.039Z,20.02
2019-03-22T03:05:24.578Z,19.50
2019-03-22T03:08:06.724Z,20.30
2019-03-22T03:10:50.511Z,20.55
2019-03-22T03:13:32.417Z,19.73
2019-03-22T03:16:14.761Z,19.48
2019-03-22T03:18:55.646Z,19.75
2019-03-22T03:21:36.404Z,19.27
2019-03-22T03:24:17.270Z,19.90
2019-03-22T03:26:57.916Z,19.37
2019-03-22T03:29:38.476Z,20.10
2019-03-22T03:32:19.581Z,19.42
2019-03-22T03:35:00.478Z,19.55
2019-03-22T03:37:41.993Z,20.20
2019-03-22T03:40:23.223Z,19.70
2019-03-22T03:43:03.950Z,22.73
2019-03-22T03:45:44.616Z,20.40
2019-03-22T03:48:25.555Z,20.08
2019-03-22T03:51:20.221Z,17.98
2019-03-22T03:54:03.559Z,20.00
2019-03-22T03:56:44.408Z,19.23
2019-03-22T03:59:26.195Z,19.67
2019-03-22T04:02:08.219Z,19.55
2019-03-22T04:04:48.886Z,20.43
2019-03-22T04:07:29.907Z,20.25
2019-03-22T04:10:11.048Z,20.08
2019-03-22T04:12:51.642Z,20.23
2019-03-22T04:15:32.476Z,20.65
2019-03-22T04:18:13.268Z,19.65
2019-03-22T04:20:55.603Z,20.30
2019-03-22T04:23:36.474Z,19.60
2019-03-22T04:26:33.941Z,19.60
2019-03-22T04:29:30.942Z,21.27
2019-03-22T04:32:28.779Z,20.52
2019-03-22T04:35:25.190Z,19.27
2019-03-22T04:38:23.778Z,18.75
2019-03-22T04:41:20.974Z,18.65
2019-03-22T04:44:18.202Z,19.35
2019-03-22T04:47:18.970Z,19.65
2019-03-22T04:50:15.877Z,21.05
2019-03-22T04:53:17.495Z,21.07
2019-03-22T04:56:18.209Z,20.30
2019-03-22T04:59:19.623Z,20.17
2019-03-22T05:02:18.070Z,21.85
2019-03-22T05:05:16.253Z,21.02
2019-03-22T05:08:14.891Z,20.48
2019-03-22T05:11:15.287Z,21.35
2019-03-22T05:14:14.197Z,20.62
2019-03-22T05:17:13.243Z,21.17
2019-03-22T05:20:12.480Z,20.00
2019-03-22T05:23:11.489Z,20.17
2019-03-22T05:26:08.743Z,21.50
2019-03-22T05:29:08.317Z,20.50
2019-03-22T05:32:14.793Z,20.75
2019-03-22T05:35:12.338Z,21.62
2019-03-22T05:38:10.221Z,22.32
2019-03-22T05:41:07.742Z,20.92
2019-03-22T05:44:04.790Z,19.25
2019-03-22T05:47:02.406Z,19.23
2019-03-22T05:49:59.034Z,20.97
2019-03-22T05:52:56.197Z,21.75
2019-03-22T05:55:52.830Z,21.20
2019-03-22T05:58:49.303Z,21.07
2019-03-22T06:01:45.962Z,20.08
2019-03-22T06:04:42.689Z,19.87
2019-03-22T06:07:39.946Z,19.82
2019-03-22T06:10:36.597Z,21.30
2019-03-22T06:13:34.052Z,20.97
2019-03-22T06:16:31.472Z,20.57
2019-03-22T06:19:28.243Z,20.23
2019-03-22T06:22:24.720Z,20.92
2019-03-22T06:25:22.385Z,19.45
2019-03-22T06:28:19.106Z,19.42
2019-03-22T06:31:16.318Z,19.60
2019-03-22T06:34:13.518Z,19.48
2019-03-22T06:37:11.866Z,18.87
2019-03-22T06:40:11.399Z,19.57
2019-03-22T06:43:08.667Z,18.07
2019-03-22T06:46:06.008Z,20.35
2019-03-22T06:49:02.837Z,19.48
2019-03-22T06:52:00.297Z,20.48
2019-03-22T06:54:57.124Z,18.70
2019-03-22T06:57:55.803Z,19.20
2019-03-22T07:00:52.401Z,19.32
2019-03-22T07:03:50.641Z,20.02
2019-03-22T07:06:48.877Z,19.25
2019-03-22T07:09:46.641Z,20.75
2019-03-22T07:12:43.943Z,19.23
2019-03-22T07:15:40.880Z,18.82
2019-03-22T07:18:39.313Z,18.33
2019-03-22T07:21:35.661Z,19.07
2019-03-22T07:24:32.276Z,16.10
2019-03-22T07:27:29.609Z,18.00
2019-03-22T07:30:26.381Z,18.53
2019-03-22T07:33:22.550Z,13.43
2019-03-22T07:36:19.391Z,17.60
2019-03-22T07:39:16.483Z,19.40
2019-03-22T07:42:12.762Z,17.17
2019-03-22T07:45:11.343Z,18.67
2019-03-22T07:48:08.523Z,16.53
2019-03-22T07:51:05.114Z,16.57
2019-03-22T07:54:03.676Z,15.93
2019-03-22T07:56:59.391Z,16.27
2019-03-22T07:59:56.459Z,18.77
2019-03-22T08:02:53.577Z,20.37
2019-03-22T08:05:51.500Z,20.53
2019-03-22T08:08:48.854Z,18.67
2019-03-22T08:11:45.756Z,21.13
2019-03-22T08:14:42.359Z,20.87
2019-03-22T08:17:39.885Z,20.63
2019-03-22T08:20:38.601Z,20.63
2019-03-22T08:23:35.358Z,20.80
2019-03-22T08:26:32.396Z,22.60
2019-03-22T08:29:29.409Z,19.50
2019-03-22T08:32:26.765Z,21.17
2019-03-22T08:35:23.286Z,20.50
2019-03-22T08:38:20.635Z,19.27
2019-03-22T08:41:17.124Z,19.87
2019-03-22T08:44:14.392Z,20.80
2019-03-22T08:47:10.962Z,19.13
2019-03-22T08:50:09.240Z,19.57
2019-03-22T08:53:05.677Z,19.70
2019-03-22T08:56:03.016Z,20.60
2019-03-22T08:59:00.553Z,22.17
2019-03-22T09:01:56.553Z,20.30
2019-03-22T09:04:53.752Z,20.77
2019-03-22T09:07:51.064Z,19.83
2019-03-22T09:10:47.936Z,21.13
2019-03-22T09:13:50.245Z,20.80
2019-03-22T09:16:47.443Z,20.80
2019-03-22T09:19:43.926Z,23.20
2019-03-22T09:22:42.008Z,22.13
2019-03-22T09:25:39.329Z,23.13
2019-03-22T09:28:38.645Z,22.87
2019-03-22T09:31:35.216Z,24.27
2019-03-22T09:34:33.867Z,22.83
2019-03-22T09:37:30.855Z,24.03
2019-03-22T09:40:28.056Z,22.63
2019-03-22T09:43:24.327Z,24.23
2019-03-22T09:46:21.630Z,22.73
2019-03-22T09:49:18.116Z,24.17
2019-03-22T09:52:15.627Z,24.03
2019-03-22T09:55:14.180Z,22.90
2019-03-22T09:58:10.102Z,24.43
2019-03-22T10:01:06.829Z,22.70
2019-03-22T10:04:03.796Z,26.33
2019-03-22T10:07:00.739Z,25.37
2019-03-22T10:09:58.457Z,25.97
2019-03-22T10:12:54.791Z,25.63
2019-03-22T10:15:51.025Z,28.30
2019-03-22T10:18:48.572Z,25.60
2019-03-22T10:21:46.315Z,26.70
2019-03-22T10:24:42.407Z,26.90
2019-03-22T10:27:39.892Z,27.97
2019-03-22T10:30:37.311Z,27.00
2019-03-22T10:33:37.608Z,29.37
2019-03-22T10:36:34.752Z,28.17
2019-03-22T10:39:31.754Z,27.00
2019-03-22T10:42:27.941Z,30.67
2019-03-22T10:45:24.063Z,27.87
2019-03-22T10:48:20.805Z,29.50
2019-03-22T10:51:17.783Z,28.77
2019-03-22T10:54:15.580Z,28.87
2019-03-22T10:57:11.738Z,29.47
2019-03-22T11:00:11.773Z,28.93
2019-03-22T11:03:08.792Z,28.93
2019-03-22T11:06:06.112Z,28.93
2019-03-22T11:09:04.574Z,28.60
2019-03-22T11:12:11.749Z,27.90
2019-03-22T11:14:59.757Z,25.97
2019-03-22T11:17:57.026Z,28.07
2019-03-22T11:20:53.132Z,25.83
2019-03-22T11:23:49.706Z,24.27
2019-03-22T11:26:47.257Z,25.47
2019-03-22T11:29:44.404Z,25.27
2019-03-22T11:32:40.730Z,28.20
2019-03-22T11:35:38.222Z,26.27
2019-03-22T11:38:35.681Z,24.83
2019-03-22T11:41:32.294Z,26.17
2019-03-22T11:44:29.527Z,24.13
2019-03-22T11:47:27.107Z,22.17
2019-03-22T11:50:24.468Z,22.57
2019-03-22T11:53:21.767Z,22.03
2019-03-22T11:56:18.920Z,21.27
2019-03-22T11:59:16.052Z,21.63
2019-03-22T12:02:21.966Z,19.47
2019-03-22T12:05:12.342Z,19.07
2019-03-22T12:08:09.669Z,19.90
2019-03-22T12:11:07.966Z,15.87
2019-03-22T12:14:05.680Z,18.23
2019-03-22T12:17:04.064Z,18.97
2019-03-22T12:20:02.168Z,18.80
2019-03-22T12:22:58.562Z,18.83
2019-03-22T12:25:55.774Z,17.50
2019-03-22T12:28:52.457Z,17.33
2019-03-22T12:31:49.602Z,18.30
2019-03-22T12:34:46.892Z,17.63
2019-03-22T12:37:44.222Z,15.90
2019-03-22T12:40:41.358Z,18.50
2019-03-22T12:43:37.634Z,18.90
2019-03-22T12:46:33.959Z,17.50
2019-03-22T12:49:31.984Z,18.27
2019-03-22T12:52:28.825Z,18.20
2019-03-22T12:55:25.470Z,19.30
2019-03-22T12:58:22.645Z,18.30
2019-03-22T13:01:20.105Z,18.53
2019-03-22T13:04:16.419Z,17.27
2019-03-22T13:07:12.937Z,17.83
2019-03-22T13:10:11.548Z,29.23
2019-03-22T13:13:07.857Z,16.97
2019-03-22T13:16:04.087Z,18.60
2019-03-22T13:19:00.981Z,16.30
2019-03-22T13:21:58.065Z,16.13
2019-03-22T13:24:54.261Z,16.53
2019-03-22T13:27:52.801Z,16.30
2019-03-22T13:30:50.385Z,16.27
2019-03-22T13:33:47.907Z,15.97
2019-03-22T13:36:44.631Z,15.23
2019-03-22T13:39:42.034Z,15.67
2019-03-22T13:42:39.052Z,16.87
2019-03-22T13:45:36.730Z,16.30
2019-03-22T13:48:33.916Z,17.43
2019-03-22T13:51:30.913Z,18.10
2019-03-22T13:54:28.456Z,19.23
2019-03-22T13:57:24.854Z,18.50
2019-03-22T14:00:22.781Z,18.33
2019-03-22T14:03:19.361Z,19.03
2019-03-22T14:06:16.889Z,18.87
2019-03-22T14:09:13.637Z,20.13
2019-03-22T14:12:10.944Z,19.83
2019-03-22T14:15:08.864Z,20.13
2019-03-22T14:18:07.320Z,19.97
2019-03-22T14:21:07.440Z,21.33
2019-03-22T14:24:04.784Z,21.97
2019-03-22T14:27:02.172Z,20.03
2019-03-22T14:29:59.021Z,20.77
2019-03-22T14:32:56.346Z,15.53
2019-03-22T14:35:52.636Z,16.90
2019-03-22T14:38:49.483Z,18.80
2019-03-22T14:41:48.131Z,22.13
2019-03-22T14:44:47.671Z,22.07
2019-03-22T14:47:44.066Z,21.63
2019-03-22T14:50:40.640Z,22.90
2019-03-22T14:53:38.118Z,22.77
2019-03-22T14:56:34.946Z,20.23
2019-03-22T14:59:31.815Z,23.00
2019-03-22T15:02:29.460Z,21.37
2019-03-22T15:05:26.538Z,22.03
2019-03-22T15:08:23.573Z,20.97
2019-03-22T15:11:20.435Z,19.13
2019-03-22T15:14:44.738Z,19.60
2019-03-22T15:18:05.466Z,18.57
2019-03-22T15:21:13.271Z,16.70
2019-03-22T15:24:29.474Z,17.03
2019-03-22T15:27:45.605Z,16.97
2019-03-22T15:31:04.286Z,22.80
2019-03-22T15:34:28.734Z,17.10
2019-03-22T15:37:50.464Z,17.70
2019-03-22T15:40:47.883Z,17.50
2019-03-22T15:43:44.846Z,21.63
2019-03-22T15:46:42.406Z,18.33
2019-03-22T15:49:39.593Z,17.87
2019-03-22T15:52:35.982Z,17.70
2019-03-22T15:55:32.465Z,20.10
2019-03-22T15:58:29.026Z,15.70
2019-03-22T16:01:26.843Z,16.80
2019-03-22T16:04:26.152Z,16.47
2019-03-22T16:07:22.055Z,18.13
2019-03-22T16:10:19.596Z,17.30
2019-03-22T16:13:16.478Z,16.63
2019-03-22T16:16:12.904Z,17.80
2019-03-22T16:19:09.209Z,16.87
2019-03-22T16:22:08.638Z,18.17
2019-03-22T16:25:07.569Z,18.23
2019-03-22T16:28:04.743Z,20.90
2019-03-22T16:31:01.164Z,20.30
2019-03-22T16:33:58.628Z,20.40
2019-03-22T16:36:55.129Z,20.27
2019-03-22T16:39:52.417Z,20.57
2019-03-22T16:42:49.382Z,20.20
2019-03-22T16:45:47.112Z,22.03
2019-03-22T16:48:44.235Z,19.10
2019-03-22T16:51:41.347Z,18.53
2019-03-22T16:54:38.938Z,23.33
2019-03-22T16:57:36.241Z,19.43
2019-03-22T17:00:33.920Z,18.57
2019-03-22T17:03:33.044Z,17.03
2019-03-22T17:06:30.266Z,17.00
2019-03-22T17:09:28.232Z,17.83
2019-03-22T17:12:25.739Z,17.03
2019-03-22T17:15:23.188Z,17.43
2019-03-22T17:18:20.385Z,17.47
2019-03-22T17:21:17.913Z,19.63
2019-03-22T17:24:15.371Z,18.07
2019-03-22T17:27:11.695Z,18.50
2019-03-22T17:30:08.638Z,18.80
2019-03-22T17:33:08.002Z,20.43
2019-03-22T17:36:04.653Z,19.33
2019-03-22T17:39:01.126Z,17.10
2019-03-22T17:41:58.448Z,19.37
2019-03-22T17:44:55.019Z,18.20
2019-03-22T17:47:52.615Z,24.47
2019-03-22T17:50:49.139Z,21.07
2019-03-22T17:53:46.272Z,17.83
2019-03-22T17:56:42.990Z,17.53
2019-03-22T17:59:44.251Z,18.30
2019-03-22T18:02:42.099Z,16.60
2019-03-22T18:05:39.171Z,16.93
2019-03-22T18:08:37.257Z,16.83
2019-03-22T18:11:34.415Z,17.67
2019-03-22T18:14:31.596Z,16.13
2019-03-22T18:17:27.973Z,16.93
2019-03-22T18:20:25.415Z,19.13
2019-03-22T18:23:22.744Z,18.83
2019-03-22T18:26:19.023Z,20.10
2019-03-22T18:29:15.555Z,19.50
2019-03-22T18:32:13.251Z,21.13
2019-03-22T18:35:12.486Z,23.20
2019-03-22T18:38:08.635Z,21.17
2019-03-22T18:41:05.919Z,20.97
2019-03-22T18:44:03.145Z,24.00
2019-03-22T18:46:59.427Z,21.83
2019-03-22T18:49:56.662Z,23.00
2019-03-22T18:52:54.090Z,21.17
2019-03-22T18:55:50.859Z,21.70
2019-03-22T18:58:47.702Z,20.80
2019-03-22T19:01:45.369Z,21.27
2019-03-22T19:04:44.286Z,22.75
2019-03-22T19:07:41.291Z,22.33
2019-03-22T19:10:39.026Z,24.00
2019-03-22T19:13:36.472Z,24.67
2019-03-22T19:16:34.895Z,25.40
2019-03-22T19:19:36.153Z,25.30
2019-03-22T19:22:33.679Z,25.20
2019-03-22T19:25:30.706Z,24.87
2019-03-22T19:28:27.763Z,27.48
2019-03-22T19:31:25.606Z,26.55
2019-03-22T19:34:23.215Z,24.67
2019-03-22T19:37:20.984Z,26.42
2019-03-22T19:40:18.366Z,25.70
2019-03-22T19:43:15.472Z,27.75
2019-03-22T19:46:13.291Z,25.85
2019-03-22T19:49:10.930Z,29.75
2019-03-22T19:52:08.534Z,31.95
2019-03-22T19:55:06.821Z,31.55
2019-03-22T19:58:03.691Z,31.45
2019-03-22T20:01:01.024Z,30.55
2019-03-22T20:03:58.085Z,30.60
2019-03-22T20:06:57.089Z,32.15
2019-03-22T20:09:55.150Z,33.80
2019-03-22T20:12:52.893Z,31.73
2019-03-22T20:15:50.882Z,33.48
2019-03-22T20:18:54.919Z,33.02
2019-03-22T20:21:52.871Z,32.58
2019-03-22T20:24:52.468Z,32.45
2019-03-22T20:27:52.639Z,30.65
2019-03-22T20:30:49.642Z,31.70
2019-03-22T20:33:47.096Z,30.17
2019-03-22T20:36:44.993Z,30.80
2019-03-22T20:39:41.910Z,30.62
2019-03-22T20:42:38.667Z,31.70
2019-03-22T20:45:37.383Z,32.63
2019-03-22T20:48:34.891Z,32.23
2019-03-22T20:51:32.616Z,32.42
2019-03-22T20:54:29.820Z,32.13
2019-03-22T20:57:26.432Z,29.87
2019-03-22T21:00:23.890Z,29.72
2019-03-22T21:03:21.662Z,29.42
2019-03-22T21:06:19.073Z,29.25
2019-03-22T21:09:16.834Z,29.52
2019-03-22T21:12:14.876Z,29.42
2019-03-22T21:15:23.579Z,30.52
2019-03-22T21:18:11.464Z,29.57
2019-03-22T21:21:08.710Z,30.92
2019-03-22T21:24:05.721Z,29.35
2019-03-22T21:27:03.548Z,28.77
2019-03-22T21:30:00.773Z,29.55
2019-03-22T21:33:01.783Z,28.20
2019-03-22T21:36:01.063Z,27.17
2019-03-22T21:38:58.533Z,26.87
2019-03-22T21:41:57.598Z,25.55
2019-03-22T21:44:54.470Z,26.33
2019-03-22T21:47:51.686Z,26.68
2019-03-22T21:50:49.171Z,27.32
2019-03-22T21:53:47.065Z,28.85
2019-03-22T21:56:43.933Z,28.45
2019-03-22T21:59:41.147Z,29.55
2019-03-22T22:02:39.558Z,28.32
2019-03-22T22:05:36.216Z,28.47
2019-03-22T22:08:33.718Z,27.93
2019-03-22T22:11:31.548Z,28.87
2019-03-22T22:14:29.282Z,28.95
2019-03-22T22:17:26.703Z,27.70
2019-03-22T22:20:28.874Z,26.93
2019-03-22T22:23:22.870Z,28.90
2019-03-22T22:26:20.825Z,28.77
2019-03-22T22:29:18.005Z,25.70
2019-03-22T22:32:15.787Z,27.20
2019-03-22T22:35:13.627Z,28.02
2019-03-22T22:38:11.170Z,26.25
2019-03-22T22:41:08.891Z,26.25
2019-03-22T22:44:06.627Z,26.23
2019-03-22T22:47:03.986Z,26.35
2019-03-22T22:50:01.591Z,27.07
2019-03-22T22:52:58.529Z,28.02
2019-03-22T22:55:55.473Z,27.65
2019-03-22T22:58:53.177Z,27.82
2019-03-22T23:01:50.646Z,24.85
2019-03-22T23:04:47.602Z,25.17
2019-03-22T23:07:45.503Z,24.20
2019-03-22T23:10:42.848Z,24.98
2019-03-22T23:13:39.980Z,23.10
2019-03-22T23:16:36.725Z,23.85
2019-03-22T23:19:34.223Z,23.18
2019-03-22T23:22:31.944Z,22.25
2019-03-22T23:25:29.611Z,23.05
2019-03-22T23:28:27.257Z,21.37
2019-03-22T23:31:24.037Z,21.77
2019-03-22T23:34:20.739Z,22.02
2019-03-22T23:37:19.307Z,22.13
2019-03-22T23:40:15.909Z,21.10
2019-03-22T23:43:13.619Z,21.35
2019-03-22T23:46:11.160Z,21.27
2019-03-22T23:49:08.833Z,22.45
2019-03-22T23:52:07.799Z,21.82
2019-03-22T23:55:05.649Z,21.05
2019-03-22T23:58:03.220Z,20.65
